Time;durP1;ratioP1;P1;durP2;ratioP2;P2;SDS_P1;SDS_P2;PMS_P1;PMS_P2;Temp;Humidity;BMP_temperature;BMP_pressure;BME280_temperature;BME280_humidity;BME280_pressure;Samples;Min_cycle;Max_cycle;Signal;HPM_P1;HPM_P2
2022/07/30 00:01:00;;;;;;;8.43;4.45;;;;;;;21.05;72.88;100450.52;1706759;84;21034;-67
2022/07/30 00:03:29;;;;;;;8.43;4.35;;;;;;;21.04;72.77;100455.48;1742515;82;21053;-68
2022/07/30 00:05:55;;;;;;;6.35;4.35;;;;;;;21.05;72.52;100451.86;1742500;82;21592;-70
2022/07/30 00:08:22;;;;;;;10.43;4.55;;;;;;;21.06;72.11;100453.55;1706753;84;21367;-69
2022/07/30 00:10:50;;;;;;;9.60;4.45;;;;;;;21.06;72.07;100461.58;1742309;82;21545;-68
2022/07/30 00:13:17;;;;;;;11.00;4.53;;;;;;;21.07;72.28;100461.09;1742510;82;21128;-69
2022/07/30 00:15:45;;;;;;;9.60;5.12;;;;;;;21.06;72.54;100468.77;1706584;84;21101;-68
2022/07/30 00:18:12;;;;;;;7.78;4.85;;;;;;;21.03;73.49;100467.19;1742562;82;21041;-68
2022/07/30 00:20:39;;;;;;;8.08;4.25;;;;;;;20.97;73.85;100458.76;1742593;82;21153;-68
2022/07/30 00:23:05;;;;;;;7.97;4.22;;;;;;;20.88;74.24;100454.94;1742349;82;21050;-69
2022/07/30 00:25:33;;;;;;;9.73;5.05;;;;;;;20.83;74.80;100465.98;1742543;82;21037;-69
2022/07/30 00:27:59;;;;;;;9.08;5.05;;;;;;;20.79;74.67;100458.30;1742604;82;21562;-67
2022/07/30 00:30:26;;;;;;;8.95;5.17;;;;;;;20.74;74.92;100458.16;1742702;82;21065;-68
2022/07/30 00:32:53;;;;;;;10.93;5.05;;;;;;;20.70;75.16;100462.02;1742341;81;21145;-69
2022/07/30 00:35:20;;;;;;;5.83;4.70;;;;;;;20.65;75.51;100454.83;1749245;82;21572;-68
2022/07/30 00:37:46;;;;;;;7.90;4.80;;;;;;;20.64;75.60;100449.12;1750357;82;21077;-69
2022/07/30 00:40:12;;;;;;;6.08;4.60;;;;;;;20.59;76.41;100449.95;1749603;82;21077;-68
2022/07/30 00:42:44;;;;;;;10.20;5.20;;;;;;;20.57;76.31;100447.87;1750268;82;21037;-68
2022/07/30 00:45:12;;;;;;;8.30;5.65;;;;;;;20.52;76.65;100443.28;1750626;82;21209;-69
2022/07/30 00:47:41;;;;;;;9.80;5.58;;;;;;;20.47;77.09;100442.77;1750271;82;21033;-67
2022/07/30 00:50:11;;;;;;;8.45;5.55;;;;;;;20.41;77.50;100445.92;1750126;82;21093;-68
2022/07/30 00:52:39;;;;;;;10.60;5.15;;;;;;;20.36;77.92;100440.03;1750077;82;21008;-69
2022/07/30 00:55:08;;;;;;;10.40;5.78;;;;;;;20.30;78.33;100438.17;1729020;82;21078;-67
2022/07/30 00:57:34;;;;;;;10.72;5.20;;;;;;;20.25;78.60;100440.83;1720590;83;21582;-68
2022/07/30 01:00:06;;;;;;;12.68;5.58;;;;;;;20.20;78.85;100437.16;1720663;82;21024;-67
2022/07/30 01:02:33;;;;;;;10.18;5.75;;;;;;;20.15;80.01;100437.94;1750319;82;21104;-69
2022/07/30 01:05:01;;;;;;;13.25;5.67;;;;;;;20.12;79.69;100430.16;1750420;82;21083;-67
2022/07/30 01:07:28;;;;;;;11.90;6.05;;;;;;;20.07;79.74;100432.31;1750352;82;21045;-68
2022/07/30 01:09:55;;;;;;;7.67;5.12;;;;;;;20.03;80.09;100433.00;1750316;82;21253;-68
2022/07/30 01:12:24;;;;;;;10.13;5.70;;;;;;;20.01;80.12;100432.73;1750643;82;21018;-67
2022/07/30 01:14:54;;;;;;;11.05;5.55;;;;;;;19.98;80.85;100428.96;1750383;82;21177;-68
2022/07/30 01:17:21;;;;;;;14.63;6.10;;;;;;;19.93;80.86;100425.28;1750629;82;21038;-68
2022/07/30 01:19:47;;;;;;;11.05;5.17;;;;;;;19.89;80.80;100427.30;1750611;82;21025;-67
2022/07/30 01:22:27;;;;;;;11.93;5.60;;;;;;;19.86;80.66;100424.86;1750755;82;21834;-67
2022/07/30 01:25:06;;;;;;;7.95;5.53;;;;;;;19.79;80.65;100420.07;1750633;81;21127;-68
2022/07/30 01:27:41;;;;;;;7.33;5.37;;;;;;;19.79;81.10;100426.27;1750642;82;21066;-67
2022/07/30 01:30:12;;;;;;;7.03;5.25;;;;;;;19.73;80.89;100428.02;1750526;82;21159;-68
2022/07/30 01:32:42;;;;;;;6.55;5.55;;;;;;;19.70;81.21;100432.25;1750789;81;21021;-68
2022/07/30 01:35:10;;;;;;;6.45;5.30;;;;;;;19.61;81.83;100425.70;1745656;82;21206;-67
2022/07/30 01:37:37;;;;;;;8.65;5.92;;;;;;;19.54;82.57;100426.25;1742614;82;21057;-68
2022/07/30 01:40:06;;;;;;;8.40;5.47;;;;;;;19.48;83.18;100421.69;1742382;82;21112;-70
2022/07/30 01:42:34;;;;;;;7.80;5.60;;;;;;;19.42;83.70;100418.12;1742695;82;21571;-68
2022/07/30 01:45:00;;;;;;;10.23;6.17;;;;;;;19.37;83.89;100420.27;1742478;82;21529;-67
2022/07/30 01:47:27;;;;;;;13.00;6.33;;;;;;;19.32;84.45;100414.36;1742289;82;21876;-69
2022/07/30 01:49:55;;;;;;;8.70;5.83;;;;;;;19.25;85.24;100411.75;1721059;82;21132;-68
2022/07/30 01:52:22;;;;;;;8.33;5.85;;;;;;;19.18;85.86;100410.45;1742434;82;21006;-69
2022/07/30 01:54:50;;;;;;;9.53;6.25;;;;;;;19.11;86.66;100414.02;1742258;82;20991;-68
2022/07/30 01:57:18;;;;;;;9.28;6.22;;;;;;;19.02;87.95;100406.16;1742432;82;21061;-68
2022/07/30 01:59:49;;;;;;;8.85;6.33;;;;;;;18.90;89.55;100405.66;1742386;82;21140;-69
2022/07/30 02:02:15;;;;;;;11.00;6.30;;;;;;;18.80;91.00;100406.77;1742463;82;21042;-68
2022/07/30 02:04:43;;;;;;;9.00;5.62;;;;;;;18.73;92.26;100416.59;1742627;82;21108;-68
2022/07/30 02:07:23;;;;;;;8.53;6.17;;;;;;;18.65;93.28;100412.59;1742877;82;21041;-69
2022/07/30 02:10:04;;;;;;;10.18;6.33;;;;;;;18.60;94.35;100425.39;1743041;82;21759;-69
2022/07/30 02:12:35;;;;;;;14.10;6.60;;;;;;;18.56;95.45;100417.69;1742476;82;21483;-69
2022/07/30 02:15:36;;;;;;;15.85;7.42;;;;;;;18.54;96.47;100425.81;1706432;83;21137;-69
2022/07/30 02:18:24;;;;;;;10.28;6.55;;;;;;;18.50;98.08;100420.78;1721362;82;21057;-69
2022/07/30 02:21:04;;;;;;;8.65;6.20;;;;;;;18.45;99.48;100427.27;1742474;82;21089;-69
2022/07/30 02:23:38;;;;;;;8.55;6.30;;;;;;;18.41;99.65;100428.41;1742494;82;21120;-68
2022/07/30 02:26:04;;;;;;;13.32;6.60;;;;;;;18.41;99.60;100424.89;1742483;82;21515;-68
2022/07/30 02:28:36;;;;;;;12.78;6.60;;;;;;;18.40;99.91;100421.38;1742478;82;21374;-66
2022/07/30 02:31:02;;;;;;;9.53;6.90;;;;;;;18.41;99.68;100427.56;1742602;80;21022;-70
2022/07/30 02:33:36;;;;;;;9.53;6.72;;;;;;;18.44;99.24;100426.02;1742651;82;21593;-68
2022/07/30 02:36:05;;;;;;;8.10;6.80;;;;;;;18.48;99.14;100424.87;1686723;84;21021;-68
2022/07/30 02:38:32;;;;;;;12.23;6.20;;;;;;;18.51;99.02;100431.33;1742900;82;21170;-68
2022/07/30 02:40:59;;;;;;;13.72;6.33;;;;;;;18.55;98.93;100429.33;1742635;82;20991;-67
2022/07/30 02:43:28;;;;;;;10.25;6.47;;;;;;;18.59;99.01;100431.69;1742816;82;21049;-68
2022/07/30 02:45:56;;;;;;;10.45;6.78;;;;;;;18.61;99.68;100429.78;1742600;82;21577;-67
2022/07/30 02:48:26;;;;;;;10.03;6.70;;;;;;;18.61;99.58;100432.45;1706492;83;21034;-67
2022/07/30 02:50:54;;;;;;;10.85;6.75;;;;;;;18.64;99.39;100430.91;1742818;82;21812;-68
2022/07/30 02:53:21;;;;;;;16.17;8.60;;;;;;;18.69;99.26;100440.42;1742565;82;21503;-69
2022/07/30 02:55:49;;;;;;;14.35;9.10;;;;;;;18.73;98.75;100443.27;1747908;82;21037;-68
2022/07/30 02:58:20;;;;;;;14.00;8.98;;;;;;;18.77;98.25;100443.45;1747539;82;21096;-68
2022/07/30 03:00:49;;;;;;;16.02;8.43;;;;;;;18.80;98.12;100439.27;1746452;82;21049;-67
2022/07/30 03:03:17;;;;;;;14.53;7.87;;;;;;;18.85;97.83;100441.15;1742541;82;21034;-68
2022/07/30 03:05:44;;;;;;;16.25;8.65;;;;;;;18.89;97.02;100440.45;1742298;82;21659;-68
2022/07/30 03:08:13;;;;;;;15.28;8.70;;;;;;;18.94;96.67;100439.20;1742548;82;21561;-69
2022/07/30 03:10:41;;;;;;;16.32;8.93;;;;;;;18.98;96.61;100439.83;1746270;82;21097;-69
2022/07/30 03:13:09;;;;;;;16.82;8.83;;;;;;;19.02;96.69;100441.34;1742488;82;21061;-67
2022/07/30 03:15:41;;;;;;;20.82;9.05;;;;;;;19.06;96.56;100445.03;1742343;82;21029;-68
2022/07/30 03:18:12;;;;;;;17.00;8.48;;;;;;;19.09;95.93;100441.30;1741595;82;21558;-67
2022/07/30 03:20:40;;;;;;;17.48;8.78;;;;;;;19.15;96.10;100438.71;1742252;82;21073;-69
2022/07/30 03:23:07;;;;;;;12.75;8.15;;;;;;;19.19;96.04;100440.22;1721921;82;21062;-67
2022/07/30 03:25:34;;;;;;;14.65;7.67;;;;;;;19.23;95.56;100439.91;1742568;82;21545;-69
2022/07/30 03:28:03;;;;;;;13.80;7.22;;;;;;;19.27;95.24;100439.20;1742327;82;21046;-68
2022/07/30 03:30:30;;;;;;;10.10;5.70;;;;;;;19.30;94.02;100438.98;1745615;80;21608;-67
2022/07/30 03:32:56;;;;;;;12.90;7.00;;;;;;;19.36;93.27;100442.58;1742562;82;21703;-68
2022/07/30 03:35:23;;;;;;;10.63;6.62;;;;;;;19.40;92.55;100437.41;1742227;82;21590;-67
2022/07/30 03:37:53;;;;;;;10.78;6.47;;;;;;;19.44;92.08;100440.24;1742556;82;21029;-67
2022/07/30 03:40:20;;;;;;;11.05;7.45;;;;;;;19.48;92.14;100436.38;1742328;82;21117;-67
2022/07/30 03:42:46;;;;;;;14.85;7.28;;;;;;;19.52;92.08;100433.52;1742526;82;21049;-67
2022/07/30 03:45:16;;;;;;;11.45;6.90;;;;;;;19.54;91.87;100435.59;1742430;82;21096;-69
2022/07/30 03:47:43;;;;;;;9.60;7.45;;;;;;;19.58;91.74;100434.40;1742391;82;21049;-68
2022/07/30 03:50:11;;;;;;;15.50;7.70;;;;;;;19.61;92.45;100430.20;1742330;82;21070;-68
2022/07/30 03:52:39;;;;;;;13.13;7.28;;;;;;;19.63;92.58;100430.95;1742758;82;21685;-69
2022/07/30 03:55:09;;;;;;;15.80;7.42;;;;;;;19.64;92.80;100430.81;1721311;82;21099;-68
2022/07/30 03:57:48;;;;;;;14.80;7.70;;;;;;;19.66;92.51;100430.72;1713213;82;21555;-68
2022/07/30 04:00:17;;;;;;;14.33;7.20;;;;;;;19.68;92.22;100428.80;1712963;83;21099;-69
2022/07/30 04:02:46;;;;;;;12.80;7.17;;;;;;;19.72;92.06;100435.67;1713154;83;21111;-69
2022/07/30 04:05:22;;;;;;;14.28;7.53;;;;;;;19.76;91.67;100426.48;1712928;82;21044;-67
2022/07/30 04:07:49;;;;;;;9.45;6.17;;;;;;;19.82;91.20;100426.03;1712995;83;21056;-68
2022/07/30 04:10:16;;;;;;;12.20;6.95;;;;;;;19.87;90.82;100423.87;1712775;83;21762;-68
2022/07/30 04:12:45;;;;;;;8.70;6.40;;;;;;;19.93;89.85;100430.63;1683326;83;21031;-68
2022/07/30 04:15:13;;;;;;;10.70;6.00;;;;;;;19.96;89.31;100428.21;1713089;82;21992;-69
2022/07/30 04:17:46;;;;;;;9.90;6.30;;;;;;;20.00;88.75;100427.03;1713011;83;21119;-69
2022/07/30 04:20:26;;;;;;;12.05;6.72;;;;;;;20.05;87.74;100434.23;1703000;83;21091;-68
2022/07/30 04:22:55;;;;;;;12.45;7.00;;;;;;;20.08;87.03;100432.21;1712979;82;21052;-68
2022/07/30 04:25:22;;;;;;;16.30;8.20;;;;;;;20.11;87.20;100432.47;1712700;83;21107;-68
2022/07/30 04:27:49;;;;;;;9.15;6.30;;;;;;;20.20;88.46;100426.91;1712688;82;21036;-69
2022/07/30 04:30:16;;;;;;;14.30;7.65;;;;;;;20.24;87.25;100423.91;1712481;82;21679;-68
2022/07/30 04:32:45;;;;;;;18.45;8.55;;;;;;;20.33;86.81;100427.73;1712503;83;21024;-69
2022/07/30 04:35:31;;;;;;;19.42;9.35;;;;;;;20.42;87.33;100426.22;1715188;82;21595;-70
2022/07/30 04:38:03;;;;;;;12.70;6.97;;;;;;;20.52;87.66;100421.88;1719487;83;21062;-69
2022/07/30 04:40:31;;;;;;;9.20;5.33;;;;;;;20.59;85.54;100427.66;1720687;83;21087;-68
2022/07/30 04:42:58;;;;;;;11.65;6.83;;;;;;;20.61;84.34;100426.58;1720559;83;21875;-69
2022/07/30 04:45:26;;;;;;;9.85;6.50;;;;;;;20.65;83.70;100418.70;1720320;83;21039;-69
2022/07/30 04:47:55;;;;;;;11.53;6.12;;;;;;;20.68;83.07;100422.97;1720257;82;21027;-69
2022/07/30 04:50:25;;;;;;;11.57;6.58;;;;;;;20.71;82.50;100416.91;1720302;83;21590;-69
2022/07/30 04:52:56;;;;;;;9.28;6.30;;;;;;;20.77;82.36;100416.08;1720552;83;21043;-70
2022/07/30 04:55:27;;;;;;;14.58;7.53;;;;;;;20.84;82.28;100420.00;1744061;82;21545;-68
2022/07/30 04:57:55;;;;;;;12.93;6.85;;;;;;;20.95;81.89;100419.55;1748017;82;20990;-69
2022/07/30 05:00:21;;;;;;;12.13;6.83;;;;;;;21.06;81.19;100429.45;1748258;82;22106;-68
2022/07/30 05:02:49;;;;;;;13.18;7.00;;;;;;;21.20;80.85;100430.23;1748093;82;21045;-69
2022/07/30 05:05:16;;;;;;;12.63;6.78;;;;;;;21.32;79.46;100427.44;1718827;82;21117;-69
2022/07/30 05:07:44;;;;;;;18.15;7.33;;;;;;;21.43;77.81;100425.31;1747937;82;21223;-69
2022/07/30 05:10:12;;;;;;;10.70;6.97;;;;;;;21.50;77.66;100430.55;1748016;82;21132;-68
2022/07/30 05:12:42;;;;;;;12.90;7.15;;;;;;;21.65;77.06;100427.64;1747876;82;21041;-70
2022/07/30 05:15:11;;;;;;;12.58;7.60;;;;;;;21.77;76.44;100426.20;1747851;82;21156;-69
2022/07/30 05:17:39;;;;;;;17.77;7.05;;;;;;;21.88;75.82;100424.02;1747840;82;21014;-69
2022/07/30 05:20:09;;;;;;;10.40;5.83;;;;;;;21.94;74.42;100424.84;1747894;82;22346;-70
2022/07/30 05:22:47;;;;;;;13.28;6.78;;;;;;;22.00;73.44;100424.36;1737291;82;21041;-69
2022/07/30 05:25:16;;;;;;;12.03;6.08;;;;;;;22.10;72.58;100423.63;1718751;82;21061;-68
2022/07/30 05:27:45;;;;;;;14.40;6.53;;;;;;;22.17;71.84;100428.85;1747943;80;20986;-69
2022/07/30 05:30:13;;;;;;;16.55;5.95;;;;;;;22.26;70.89;100433.50;1747930;82;21132;-69
2022/07/30 05:32:43;;;;;;;11.15;5.97;;;;;;;22.35;70.54;100428.73;1712190;83;21038;-68
2022/07/30 05:35:10;;;;;;;15.05;6.60;;;;;;;22.48;69.32;100430.42;1686336;84;21069;-68
2022/07/30 05:37:37;;;;;;;11.60;5.50;;;;;;;22.61;69.59;100429.75;1742662;82;21073;-69
2022/07/30 05:40:05;;;;;;;13.68;5.28;;;;;;;22.72;68.03;100440.45;1742999;82;21118;-70
2022/07/30 05:42:52;;;;;;;11.12;5.03;;;;;;;22.85;66.98;100438.11;1740914;82;21093;-68
2022/07/30 05:45:19;;;;;;;8.50;4.85;;;;;;;22.94;64.69;100442.21;1742548;82;21155;-68
2022/07/30 05:47:47;;;;;;;16.15;4.83;;;;;;;22.96;64.24;100440.25;1742540;82;21331;-69
2022/07/30 05:50:15;;;;;;;9.30;5.00;;;;;;;23.08;64.03;100441.08;1742501;82;21568;-69
2022/07/30 05:52:41;;;;;;;10.50;4.60;;;;;;;23.19;62.37;100439.69;1742814;82;21108;-70
2022/07/30 05:55:10;;;;;;;7.25;4.65;;;;;;;23.25;61.81;100439.14;1717066;82;21164;-69
2022/07/30 05:57:40;;;;;;;16.12;4.95;;;;;;;23.35;61.95;100442.38;1683187;83;21843;-70
2022/07/30 06:00:10;;;;;;;11.12;5.10;;;;;;;23.43;62.44;100445.27;1712827;83;21053;-69
2022/07/30 06:02:47;;;;;;;9.50;4.87;;;;;;;23.50;61.36;100445.60;1712768;83;21067;-68
2022/07/30 06:05:27;;;;;;;10.45;5.55;;;;;;;23.56;60.41;100444.58;1712840;82;21036;-68
2022/07/30 06:07:55;;;;;;;8.75;5.45;;;;;;;23.61;60.75;100443.69;1713067;82;21535;-68
2022/07/30 06:10:23;;;;;;;13.70;5.78;;;;;;;23.66;61.22;100442.78;1712869;83;21306;-69
2022/07/30 06:12:51;;;;;;;10.18;5.70;;;;;;;23.75;61.56;100447.05;1712989;82;21051;-68
2022/07/30 06:15:19;;;;;;;13.13;6.08;;;;;;;23.85;60.61;100445.23;1712792;83;21122;-70
2022/07/30 06:17:46;;;;;;;18.17;6.15;;;;;;;23.90;60.05;100445.68;1712863;83;21119;-70
2022/07/30 06:20:21;;;;;;;16.37;5.90;;;;;;;23.91;60.10;100442.02;1713227;83;21055;-70
2022/07/30 06:22:51;;;;;;;10.58;5.90;;;;;;;23.97;60.40;100436.58;1713250;83;21091;-68
2022/07/30 06:25:20;;;;;;;19.62;7.30;;;;;;;24.06;59.77;100441.14;1713065;83;21044;-70
2022/07/30 06:27:46;;;;;;;15.93;6.72;;;;;;;24.17;60.46;100434.81;1712967;82;21034;-71
2022/07/30 06:30:13;;;;;;;13.62;6.65;;;;;;;24.23;61.00;100432.43;1713223;83;21094;-68
2022/07/30 06:32:42;;;;;;;15.25;6.60;;;;;;;24.35;60.35;100434.51;1713003;83;21039;-71
2022/07/30 06:35:10;;;;;;;12.98;6.70;;;;;;;24.43;60.77;100434.68;1717078;82;21906;-68
2022/07/30 06:37:36;;;;;;;15.95;6.80;;;;;;;24.48;60.04;100429.75;1742460;82;21045;-69
2022/07/30 06:40:06;;;;;;;14.20;6.62;;;;;;;24.56;60.23;100429.05;1742531;82;22207;-69
2022/07/30 06:42:47;;;;;;;11.40;6.03;;;;;;;24.63;59.74;100423.95;1710457;82;21029;-68
2022/07/30 06:45:24;;;;;;;15.15;5.90;;;;;;;24.64;58.48;100433.25;1701080;82;21092;-68
2022/07/30 06:48:04;;;;;;;8.23;5.78;;;;;;;24.69;58.32;100423.41;1722984;82;21050;-69
2022/07/30 06:50:31;;;;;;;14.68;5.60;;;;;;;24.82;57.95;100426.64;1742572;82;21078;-69
2022/07/30 06:52:58;;;;;;;16.73;5.67;;;;;;;25.01;58.11;100427.66;1742453;82;21053;-69
2022/07/30 06:55:27;;;;;;;10.13;5.33;;;;;;;25.18;57.14;100424.25;1742500;82;21290;-71
2022/07/30 06:57:57;;;;;;;12.50;5.58;;;;;;;25.32;56.41;100426.49;1742794;82;21046;-68
2022/07/30 07:00:43;;;;;;;9.88;5.53;;;;;;;25.50;56.43;100420.36;1742615;82;21146;-69
2022/07/30 07:03:11;;;;;;;14.60;5.90;;;;;;;25.73;56.07;100424.39;1742504;82;21123;-68
2022/07/30 07:05:38;;;;;;;11.38;5.80;;;;;;;25.82;56.22;100421.31;1743077;82;21095;-70
2022/07/30 07:08:04;;;;;;;11.45;6.12;;;;;;;25.96;55.32;100417.31;1742638;82;21023;-69
2022/07/30 07:10:33;;;;;;;13.78;5.92;;;;;;;26.10;55.30;100426.75;1742913;82;21109;-69
2022/07/30 07:13:07;;;;;;;14.05;6.75;;;;;;;26.54;55.07;100420.16;1731572;82;21094;-70
2022/07/30 07:15:34;;;;;;;11.80;5.80;;;;;;;26.97;54.30;100416.70;1721502;82;21602;-69
2022/07/30 07:18:01;;;;;;;7.37;4.50;;;;;;;27.46;53.06;100410.00;1742353;82;21097;-69
2022/07/30 07:20:34;;;;;;;7.60;4.62;;;;;;;28.00;49.40;100416.91;1706602;83;21045;-71
2022/07/30 07:23:04;;;;;;;7.37;4.30;;;;;;;28.72;46.16;100406.12;1742630;82;21045;-69
2022/07/30 07:25:36;;;;;;;7.22;4.20;;;;;;;28.72;46.16;100406.12;1742542;82;21596;-69
2022/07/30 07:28:00;;;;;;;9.70;4.35;;;;;;;29.01;44.81;100405.11;1720276;81;21503;-70
2022/07/30 07:30:27;;;;;;;8.83;4.58;;;;;;;29.40;44.31;100401.71;1742742;82;21112;-70
2022/07/30 07:32:54;;;;;;;6.55;3.98;;;;;;;29.75;42.93;100407.75;1742461;82;21040;-69
2022/07/30 07:35:22;;;;;;;12.13;3.62;;;;;;;29.98;42.33;100403.75;1742445;82;21049;-70
2022/07/30 07:37:49;;;;;;;7.12;3.62;;;;;;;30.36;40.28;100403.91;1749906;82;21150;-69
2022/07/30 07:40:51;;;;;;;11.60;3.85;;;;;;;30.61;40.54;100401.05;1689489;84;21072;-69
2022/07/30 07:43:19;;;;;;;7.30;3.47;;;;;;;31.06;39.55;100392.53;1691049;84;21528;-68
2022/07/30 07:45:46;;;;;;;12.07;3.60;;;;;;;31.41;37.99;100388.85;1689566;84;21056;-69
2022/07/30 07:48:13;;;;;;;8.90;3.70;;;;;;;31.48;37.90;100394.70;1690976;84;21092;-70
2022/07/30 07:50:48;;;;;;;9.35;3.30;;;;;;;31.44;37.36;100396.11;1688864;84;21239;-70
2022/07/30 07:53:17;;;;;;;9.95;3.45;;;;;;;31.61;37.73;100390.48;1690222;84;21084;-68
2022/07/30 07:55:44;;;;;;;7.25;3.98;;;;;;;31.47;37.01;100388.95;1662525;84;21609;-68
2022/07/30 07:58:13;;;;;;;4.40;3.35;;;;;;;31.52;37.31;100382.42;1688770;85;21041;-68
2022/07/30 08:00:39;;;;;;;7.10;3.60;;;;;;;31.84;37.34;100383.08;1675552;85;21049;-69
2022/07/30 08:03:08;;;;;;;8.25;3.20;;;;;;;32.39;36.47;100387.11;1675369;85;21097;-69
2022/07/30 08:05:35;;;;;;;6.25;3.22;;;;;;;32.90;35.22;100385.30;1683489;85;21029;-70
2022/07/30 08:08:05;;;;;;;5.50;3.50;;;;;;;33.12;34.53;100381.53;1682098;85;21097;-69
2022/07/30 08:10:46;;;;;;;5.97;3.12;;;;;;;33.06;34.25;100379.61;1655799;85;21072;-70
2022/07/30 08:13:14;;;;;;;5.10;3.50;;;;;;;32.73;34.76;100384.20;1683295;85;21073;-70
2022/07/30 08:16:01;;;;;;;6.95;3.25;;;;;;;32.64;35.19;100378.56;1683603;85;21327;-69
2022/07/30 08:18:30;;;;;;;10.30;3.77;;;;;;;33.03;34.31;100374.50;1679722;85;21124;-69
2022/07/30 08:20:59;;;;;;;5.90;3.27;;;;;;;33.35;34.20;100370.35;1681482;85;21072;-69
2022/07/30 08:23:29;;;;;;;7.47;3.50;;;;;;;33.38;33.32;100368.61;1683250;85;21568;-69
2022/07/30 08:25:57;;;;;;;8.05;3.42;;;;;;;33.15;33.61;100363.91;1683677;85;21133;-70
2022/07/30 08:28:24;;;;;;;7.20;3.35;;;;;;;33.19;34.12;100359.22;1683441;85;21718;-70
2022/07/30 08:30:51;;;;;;;6.20;3.37;;;;;;;33.23;33.77;100359.16;1683717;85;21053;-69
2022/07/30 08:33:20;;;;;;;7.60;3.50;;;;;;;33.40;33.98;100358.83;1683553;85;21107;-69
2022/07/30 08:35:48;;;;;;;8.40;2.80;;;;;;;33.62;33.55;100355.00;1683403;85;21132;-69
2022/07/30 08:38:14;;;;;;;3.58;2.33;;;;;;;33.86;32.27;100347.33;1669535;85;21121;-70
2022/07/30 08:40:43;;;;;;;5.60;2.90;;;;;;;34.00;31.78;100344.95;1668873;86;21104;-69
2022/07/30 08:43:10;;;;;;;9.95;3.00;;;;;;;33.97;31.27;100345.38;1668682;86;21113;-70
2022/07/30 08:45:38;;;;;;;7.12;2.42;;;;;;;33.81;32.13;100337.55;1668884;85;21073;-68
2022/07/30 08:48:09;;;;;;;5.35;2.50;;;;;;;33.88;31.60;100339.78;1664931;86;21118;-69
2022/07/30 08:51:35;;;;;;;5.50;2.52;;;;;;;34.27;31.40;100342.34;1851746;77;22414;-68
2022/07/30 08:54:18;;;;;;;6.78;2.67;;;;;;;34.50;31.02;100343.33;1767427;80;21521;-69
2022/07/30 08:56:44;;;;;;;7.60;2.62;;;;;;;34.13;30.81;100342.00;1787624;80;21771;-69
2022/07/30 08:59:12;;;;;;;5.50;2.40;;;;;;;33.81;31.37;100331.55;1754653;81;21618;-69
2022/07/30 09:01:39;;;;;;;11.38;2.70;;;;;;;33.85;31.09;100332.00;1787451;80;20985;-69
2022/07/30 09:04:07;;;;;;;7.33;2.47;;;;;;;34.03;30.20;100334.17;1754569;81;21057;-69
2022/07/30 09:06:35;;;;;;;9.93;2.50;;;;;;;33.86;31.03;100328.21;1787435;80;21106;-69
2022/07/30 09:09:04;;;;;;;9.85;2.80;;;;;;;33.75;31.50;100323.33;1754741;81;22001;-71
2022/07/30 09:11:34;;;;;;;5.87;2.58;;;;;;;33.92;31.69;100321.94;1787208;80;20997;-70
2022/07/30 09:14:11;;;;;;;8.40;2.58;;;;;;;34.18;31.10;100306.69;1754507;81;21538;-68
2022/07/30 09:16:41;;;;;;;10.70;2.65;;;;;;;34.18;31.29;100309.42;1787087;80;21032;-69
2022/07/30 09:19:20;;;;;;;4.72;2.30;;;;;;;34.22;31.29;100309.34;1735680;81;21048;-69
2022/07/30 09:21:59;;;;;;;3.50;1.92;;;;;;;34.40;30.80;100307.37;1755506;81;21005;-70
2022/07/30 09:24:40;;;;;;;3.92;2.10;;;;;;;34.38;29.70;100304.83;1692488;84;21065;-70
2022/07/30 09:27:44;;;;;;;5.75;2.25;;;;;;;34.01;29.64;100301.58;1725744;83;21025;-70
2022/07/30 09:30:54;;;;;;;3.72;2.30;;;;;;;33.94;29.81;100305.35;1695169;84;21647;-70
2022/07/30 09:33:42;;;;;;;4.70;2.40;;;;;;;33.94;30.20;100306.19;1725974;83;21072;-69
2022/07/30 09:36:16;;;;;;;7.10;2.00;;;;;;;34.10;29.46;100302.80;1637843;84;21419;-70
2022/07/30 09:38:57;;;;;;;3.45;2.20;;;;;;;34.34;29.16;100296.73;1677014;83;21038;-70
2022/07/30 09:41:40;;;;;;;6.78;2.65;;;;;;;34.65;28.37;100304.36;1691929;84;21056;-71
2022/07/30 09:44:11;;;;;;;3.10;2.00;;;;;;;34.63;28.60;100313.83;1725975;83;21083;-69
2022/07/30 09:46:52;;;;;;;5.33;2.20;;;;;;;34.12;28.56;100312.97;1668013;84;21143;-70
2022/07/30 09:49:30;;;;;;;3.98;1.92;;;;;;;33.64;29.30;100299.67;1724769;83;21088;-69
2022/07/30 09:51:57;;;;;;;4.70;2.00;;;;;;;33.52;29.50;100308.60;1683109;85;21108;-70
2022/07/30 09:54:47;;;;;;;5.00;2.30;;;;;;;33.50;29.23;100299.27;1711049;83;21072;-71
2022/07/30 09:57:14;;;;;;;6.47;2.35;;;;;;;33.20;29.77;100294.08;1706682;83;21069;-69
2022/07/30 09:59:41;;;;;;;7.22;2.17;;;;;;;33.25;30.02;100292.63;1707612;84;21106;-68
2022/07/30 10:02:08;;;;;;;4.55;2.10;;;;;;;33.49;29.86;100293.47;1707351;84;21089;-70
2022/07/30 10:04:39;;;;;;;6.17;1.85;;;;;;;33.47;29.38;100295.56;1703644;84;21518;-68
2022/07/30 10:07:19;;;;;;;6.58;2.30;;;;;;;33.21;30.07;100299.83;1706982;84;21065;-70
2022/07/30 10:09:47;;;;;;;5.17;2.22;;;;;;;32.83;30.43;100302.58;1707413;84;21081;-70
2022/07/30 10:12:15;;;;;;;6.65;2.25;;;;;;;32.51;31.08;100304.83;1707517;84;21097;-69
2022/07/30 10:14:45;;;;;;;3.77;2.25;;;;;;;32.42;31.06;100297.80;1707367;83;21692;-71
2022/07/30 10:17:14;;;;;;;6.85;2.20;;;;;;;32.27;31.11;100298.71;1706910;83;21070;-70
2022/07/30 10:19:44;;;;;;;8.18;2.90;;;;;;;31.98;31.53;100298.32;1707267;83;21614;-70
2022/07/30 10:22:30;;;;;;;5.58;2.30;;;;;;;31.68;32.14;100297.49;1707308;84;21068;-70
2022/07/30 10:25:21;;;;;;;4.37;2.22;;;;;;;31.52;31.91;100291.77;1707134;83;21058;-69
2022/07/30 10:28:06;;;;;;;4.95;2.30;;;;;;;31.47;32.22;100293.70;1707041;84;21907;-70
2022/07/30 10:30:33;;;;;;;7.72;2.62;;;;;;;31.14;32.59;100296.75;1707061;84;21081;-70
2022/07/30 10:32:59;;;;;;;6.60;3.20;;;;;;;30.96;33.15;100294.06;1706968;84;21069;-69
2022/07/30 10:35:27;;;;;;;5.67;2.60;;;;;;;30.91;33.61;100297.34;1706977;84;21073;-70
2022/07/30 10:37:54;;;;;;;4.65;2.60;;;;;;;31.01;33.51;100297.91;1707054;84;21069;-70
2022/07/30 10:40:32;;;;;;;7.62;2.40;;;;;;;31.08;33.06;100300.73;1707146;84;22214;-71
2022/07/30 10:43:36;;;;;;;4.50;2.40;;;;;;;31.06;32.81;100305.02;1707054;84;21045;-69
2022/07/30 10:46:30;;;;;;;8.38;3.00;;;;;;;30.85;33.03;100298.07;1687033;84;21113;-69
2022/07/30 10:49:10;;;;;;;5.80;2.72;;;;;;;30.77;33.49;100303.58;1706362;83;21066;-69
2022/07/30 10:51:53;;;;;;;9.63;2.55;;;;;;;30.67;33.60;100299.24;1717006;83;21044;-70
2022/07/30 10:54:39;;;;;;;8.33;2.67;;;;;;;30.70;33.45;100296.14;1726410;82;21094;-70
2022/07/30 10:57:17;;;;;;;6.12;2.60;;;;;;;30.80;33.69;100301.83;1735517;82;21081;-70
2022/07/30 10:59:54;;;;;;;5.50;2.30;;;;;;;30.93;33.66;100300.72;1735814;82;21050;-69
2022/07/30 11:02:22;;;;;;;4.87;2.45;;;;;;;31.08;32.53;100297.52;1733851;82;21557;-70
2022/07/30 11:04:49;;;;;;;6.20;2.60;;;;;;;31.06;31.96;100290.05;1735912;82;21506;-69
2022/07/30 11:07:27;;;;;;;5.72;2.22;;;;;;;31.15;32.86;100290.30;1735795;82;21006;-70
2022/07/30 11:09:59;;;;;;;5.83;2.70;;;;;;;31.09;32.19;100288.31;1735853;82;21105;-71
2022/07/30 11:12:47;;;;;;;5.42;2.58;;;;;;;31.23;32.16;100281.70;1735610;82;21056;-70
2022/07/30 11:15:14;;;;;;;3.55;2.33;;;;;;;31.58;32.00;100283.34;1735709;82;21145;-71
2022/07/30 11:18:04;;;;;;;5.53;2.35;;;;;;;31.81;31.42;100278.59;1735975;82;21057;-69
2022/07/30 11:20:32;;;;;;;7.03;2.30;;;;;;;31.69;31.56;100276.05;1735991;82;21045;-70
2022/07/30 11:23:11;;;;;;;4.92;2.45;;;;;;;31.52;32.34;100275.44;1736151;82;21049;-70
2022/07/30 11:25:38;;;;;;;4.75;2.17;;;;;;;31.55;32.77;100275.89;1732084;82;21511;-69
2022/07/30 11:28:05;;;;;;;6.22;2.25;;;;;;;31.67;32.55;100269.95;1735737;82;21014;-71
2022/07/30 11:30:33;;;;;;;7.47;2.67;;;;;;;31.60;32.50;100267.67;1735781;82;21045;-72
2022/07/30 11:33:12;;;;;;;7.75;2.50;;;;;;;31.44;33.00;100264.64;1735657;82;21230;-71
2022/07/30 11:35:40;;;;;;;6.58;2.60;;;;;;;31.05;32.47;100269.84;1735848;82;21023;-71
2022/07/30 11:38:14;;;;;;;4.67;2.50;;;;;;;30.54;33.31;100273.19;1735909;82;20997;-69
2022/07/30 11:40:49;;;;;;;7.90;2.65;;;;;;;30.30;33.65;100269.66;1709300;82;21145;-70